sensor_id;sensor_type;location;lat;lon;timestamp;P1;durP1;ratioP1;P2;durP2;ratioP2
18647;SDS011;9453;50.294;18.644;2022-10-31T05:03:10;23.20;;;10.60;;
18647;SDS011;9453;50.294;18.644;2022-10-31T05:05:37;16.27;;;8.83;;
18647;SDS011;9453;50.294;18.644;2022-10-31T05:08:04;14.47;;;8.37;;
18647;SDS011;9453;50.294;18.644;2022-10-31T05:10:31;17.07;;;8.47;;
18647;SDS011;9453;50.294;18.644;2022-10-31T05:12:58;16.10;;;8.20;;
18647;SDS011;9453;50.294;18.644;2022-10-31T05:15:26;17.53;;;8.93;;
18647;SDS011;9453;50.294;18.644;2022-10-31T05:17:54;17.00;;;8.13;;
18647;SDS011;9453;50.294;18.644;2022-10-31T05:20:24;17.87;;;9.83;;
18647;SDS011;9453;50.294;18.644;2022-10-31T05:22:54;20.07;;;9.50;;
18647;SDS011;9453;50.294;18.644;2022-10-31T05:25:22;22.77;;;10.43;;
18647;SDS011;9453;50.294;18.644;2022-10-31T05:27:51;21.93;;;10.63;;
18647;SDS011;9453;50.294;18.644;2022-10-31T05:30:19;18.50;;;9.23;;
18647;SDS011;9453;50.294;18.644;2022-10-31T05:32:48;19.90;;;9.60;;
18647;SDS011;9453;50.294;18.644;2022-10-31T05:35:17;19.47;;;8.83;;
18647;SDS011;9453;50.294;18.644;2022-10-31T05:37:46;17.03;;;8.77;;
18647;SDS011;9453;50.294;18.644;2022-10-31T05:40:13;17.37;;;8.70;;
18647;SDS011;9453;50.294;18.644;2022-10-31T05:42:44;18.43;;;9.40;;
18647;SDS011;9453;50.294;18.644;2022-10-31T05:45:12;17.77;;;9.37;;
18647;SDS011;9453;50.294;18.644;2022-10-31T05:47:40;17.80;;;9.93;;
18647;SDS011;9453;50.294;18.644;2022-10-31T05:50:08;18.17;;;8.73;;
18647;SDS011;9453;50.294;18.644;2022-10-31T05:52:35;16.63;;;8.37;;
18647;SDS011;9453;50.294;18.644;2022-10-31T05:55:04;16.23;;;7.83;;
18647;SDS011;9453;50.294;18.644;2022-10-31T05:57:32;19.60;;;8.50;;
18647;SDS011;9453;50.294;18.644;2022-10-31T05:59:59;16.83;;;9.20;;
18647;SDS011;9453;50.294;18.644;2022-10-31T06:02:26;20.43;;;10.00;;
18647;SDS011;9453;50.294;18.644;2022-10-31T06:04:57;25.03;;;11.77;;
18647;SDS011;9453;50.294;18.644;2022-10-31T06:07:24;20.73;;;10.37;;
18647;SDS011;9453;50.294;18.644;2022-10-31T06:09:51;21.40;;;10.63;;
18647;SDS011;9453;50.294;18.644;2022-10-31T06:12:19;21.30;;;8.63;;
18647;SDS011;9453;50.294;18.644;2022-10-31T06:14:46;21.83;;;11.03;;
18647;SDS011;9453;50.294;18.644;2022-10-31T06:17:12;20.30;;;10.33;;
18647;SDS011;9453;50.294;18.644;2022-10-31T06:19:39;20.00;;;9.83;;
18647;SDS011;9453;50.294;18.644;2022-10-31T06:22:07;16.93;;;8.20;;
18647;SDS011;9453;50.294;18.644;2022-10-31T06:24:36;15.67;;;7.90;;
18647;SDS011;9453;50.294;18.644;2022-10-31T06:27:03;13.87;;;7.20;;
18647;SDS011;9453;50.294;18.644;2022-10-31T06:29:31;12.23;;;7.90;;
18647;SDS011;9453;50.294;18.644;2022-10-31T06:31:58;16.07;;;8.60;;
18647;SDS011;9453;50.294;18.644;2022-10-31T06:34:25;14.33;;;7.73;;
18647;SDS011;9453;50.294;18.644;2022-10-31T06:36:52;15.87;;;8.37;;
18647;SDS011;9453;50.294;18.644;2022-10-31T06:39:19;13.87;;;8.30;;
18647;SDS011;9453;50.294;18.644;2022-10-31T06:41:46;12.67;;;7.27;;
18647;SDS011;9453;50.294;18.644;2022-10-31T06:44:13;14.70;;;7.83;;
18647;SDS011;9453;50.294;18.644;2022-10-31T06:46:42;17.67;;;8.23;;
18647;SDS011;9453;50.294;18.644;2022-10-31T06:49:08;16.33;;;8.93;;
18647;SDS011;9453;50.294;18.644;2022-10-31T06:51:35;23.60;;;10.03;;
18647;SDS011;9453;50.294;18.644;2022-10-31T06:54:02;16.17;;;8.20;;
18647;SDS011;9453;50.294;18.644;2022-10-31T06:56:30;17.67;;;8.80;;
18647;SDS011;9453;50.294;18.644;2022-10-31T06:58:57;23.10;;;12.17;;
18647;SDS011;9453;50.294;18.644;2022-10-31T07:01:24;22.13;;;10.03;;
18647;SDS011;9453;50.294;18.644;2022-10-31T07:03:52;19.03;;;9.93;;
18647;SDS011;9453;50.294;18.644;2022-10-31T07:06:19;19.23;;;10.23;;
18647;SDS011;9453;50.294;18.644;2022-10-31T07:08:46;20.60;;;9.57;;
18647;SDS011;9453;50.294;18.644;2022-10-31T07:11:12;18.67;;;9.30;;
18647;SDS011;9453;50.294;18.644;2022-10-31T07:13:39;18.93;;;9.83;;
18647;SDS011;9453;50.294;18.644;2022-10-31T07:16:06;24.43;;;11.83;;
18647;SDS011;9453;50.294;18.644;2022-10-31T07:18:35;19.67;;;10.00;;
18647;SDS011;9453;50.294;18.644;2022-10-31T07:21:04;19.70;;;10.30;;
18647;SDS011;9453;50.294;18.644;2022-10-31T07:23:31;24.37;;;12.53;;
18647;SDS011;9453;50.294;18.644;2022-10-31T07:25:58;25.97;;;12.23;;
18647;SDS011;9453;50.294;18.644;2022-10-31T07:28:26;23.70;;;11.17;;
18647;SDS011;9453;50.294;18.644;2022-10-31T07:30:54;22.03;;;11.00;;
18647;SDS011;9453;50.294;18.644;2022-10-31T07:33:22;25.97;;;12.83;;
18647;SDS011;9453;50.294;18.644;2022-10-31T07:35:51;29.17;;;13.30;;
18647;SDS011;9453;50.294;18.644;2022-10-31T07:38:19;23.70;;;12.17;;
18647;SDS011;9453;50.294;18.644;2022-10-31T07:40:49;21.33;;;11.37;;
18647;SDS011;9453;50.294;18.644;2022-10-31T07:43:17;18.83;;;10.53;;
18647;SDS011;9453;50.294;18.644;2022-10-31T07:45:48;19.90;;;9.73;;
18647;SDS011;9453;50.294;18.644;2022-10-31T07:48:15;23.73;;;12.33;;
18647;SDS011;9453;50.294;18.644;2022-10-31T07:50:42;23.77;;;12.03;;
18647;SDS011;9453;50.294;18.644;2022-10-31T07:53:12;27.27;;;12.90;;
18647;SDS011;9453;50.294;18.644;2022-10-31T07:55:41;23.83;;;12.07;;
18647;SDS011;9453;50.294;18.644;2022-10-31T07:58:09;20.83;;;10.37;;
18647;SDS011;9453;50.294;18.644;2022-10-31T08:00:38;18.60;;;10.43;;
18647;SDS011;9453;50.294;18.644;2022-10-31T08:03:07;32.90;;;16.10;;
18647;SDS011;9453;50.294;18.644;2022-10-31T08:05:35;24.53;;;12.10;;
18647;SDS011;9453;50.294;18.644;2022-10-31T08:08:03;18.57;;;10.30;;
18647;SDS011;9453;50.294;18.644;2022-10-31T08:10:31;21.43;;;10.30;;
18647;SDS011;9453;50.294;18.644;2022-10-31T08:13:00;19.77;;;10.33;;
18647;SDS011;9453;50.294;18.644;2022-10-31T08:15:28;21.07;;;10.67;;
18647;SDS011;9453;50.294;18.644;2022-10-31T08:17:55;22.97;;;11.87;;
18647;SDS011;9453;50.294;18.644;2022-10-31T08:20:22;18.80;;;10.60;;
18647;SDS011;9453;50.294;18.644;2022-10-31T08:22:53;21.47;;;10.60;;
18647;SDS011;9453;50.294;18.644;2022-10-31T08:25:21;23.87;;;12.40;;
18647;SDS011;9453;50.294;18.644;2022-10-31T08:27:49;20.37;;;9.93;;
18647;SDS011;9453;50.294;18.644;2022-10-31T08:30:18;24.67;;;12.03;;
18647;SDS011;9453;50.294;18.644;2022-10-31T08:32:46;20.67;;;10.83;;
18647;SDS011;9453;50.294;18.644;2022-10-31T08:35:13;21.57;;;10.60;;
18647;SDS011;9453;50.294;18.644;2022-10-31T08:37:40;19.20;;;10.27;;
18647;SDS011;9453;50.294;18.644;2022-10-31T08:40:07;22.10;;;9.80;;
18647;SDS011;9453;50.294;18.644;2022-10-31T08:42:36;14.10;;;8.30;;
18647;SDS011;9453;50.294;18.644;2022-10-31T08:45:03;16.33;;;8.33;;
18647;SDS011;9453;50.294;18.644;2022-10-31T08:47:32;13.30;;;6.73;;
18647;SDS011;9453;50.294;18.644;2022-10-31T08:49:59;13.82;;;7.78;;
18647;SDS011;9453;50.294;18.644;2022-10-31T08:52:26;17.47;;;9.67;;
18647;SDS011;9453;50.294;18.644;2022-10-31T08:54:53;18.42;;;9.07;;
18647;SDS011;9453;50.294;18.644;2022-10-31T08:57:20;14.27;;;7.95;;
18647;SDS011;9453;50.294;18.644;2022-10-31T08:59:46;14.40;;;7.57;;
18647;SDS011;9453;50.294;18.644;2022-10-31T09:02:13;13.60;;;7.22;;
18647;SDS011;9453;50.294;18.644;2022-10-31T09:04:42;13.85;;;7.25;;
18647;SDS011;9453;50.294;18.644;2022-10-31T09:07:09;12.18;;;7.05;;
18647;SDS011;9453;50.294;18.644;2022-10-31T09:09:36;13.30;;;7.35;;
18647;SDS011;9453;50.294;18.644;2022-10-31T09:12:03;14.35;;;7.93;;
18647;SDS011;9453;50.294;18.644;2022-10-31T09:14:31;15.80;;;7.65;;
18647;SDS011;9453;50.294;18.644;2022-10-31T09:16:58;25.30;;;11.05;;
18647;SDS011;9453;50.294;18.644;2022-10-31T09:19:25;18.90;;;9.10;;
18647;SDS011;9453;50.294;18.644;2022-10-31T09:21:54;15.43;;;7.97;;
18647;SDS011;9453;50.294;18.644;2022-10-31T09:24:21;12.48;;;7.10;;
18647;SDS011;9453;50.294;18.644;2022-10-31T09:26:48;14.23;;;7.25;;
18647;SDS011;9453;50.294;18.644;2022-10-31T09:29:15;11.75;;;6.13;;
18647;SDS011;9453;50.294;18.644;2022-10-31T09:31:42;13.27;;;7.18;;
18647;SDS011;9453;50.294;18.644;2022-10-31T09:34:09;14.13;;;7.15;;
18647;SDS011;9453;50.294;18.644;2022-10-31T09:36:36;10.75;;;5.80;;
18647;SDS011;9453;50.294;18.644;2022-10-31T09:39:05;16.80;;;8.18;;
18647;SDS011;9453;50.294;18.644;2022-10-31T09:41:37;17.40;;;8.70;;
18647;SDS011;9453;50.294;18.644;2022-10-31T09:44:20;15.88;;;7.60;;
18647;SDS011;9453;50.294;18.644;2022-10-31T09:46:54;13.73;;;7.00;;
18647;SDS011;9453;50.294;18.644;2022-10-31T09:49:33;15.77;;;7.65;;
18647;SDS011;9453;50.294;18.644;2022-10-31T09:52:10;11.18;;;6.63;;
18647;SDS011;9453;50.294;18.644;2022-10-31T09:54:46;11.40;;;6.45;;
18647;SDS011;9453;50.294;18.644;2022-10-31T09:57:19;16.00;;;8.05;;
18647;SDS011;9453;50.294;18.644;2022-10-31T09:59:51;17.52;;;8.52;;
18647;SDS011;9453;50.294;18.644;2022-10-31T10:02:20;12.13;;;5.75;;
18647;SDS011;9453;50.294;18.644;2022-10-31T10:04:53;17.17;;;6.50;;
18647;SDS011;9453;50.294;18.644;2022-10-31T10:07:27;14.18;;;5.97;;
18647;SDS011;9453;50.294;18.644;2022-10-31T10:10:08;12.65;;;6.00;;
18647;SDS011;9453;50.294;18.644;2022-10-31T10:12:43;11.60;;;5.80;;
18647;SDS011;9453;50.294;18.644;2022-10-31T10:15:31;18.50;;;8.30;;
18647;SDS011;9453;50.294;18.644;2022-10-31T10:18:11;16.38;;;6.22;;
18647;SDS011;9453;50.294;18.644;2022-10-31T10:20:54;14.90;;;7.30;;
18647;SDS011;9453;50.294;18.644;2022-10-31T10:23:35;15.75;;;6.85;;
18647;SDS011;9453;50.294;18.644;2022-10-31T10:26:15;14.52;;;7.28;;
18647;SDS011;9453;50.294;18.644;2022-10-31T10:28:44;14.52;;;6.95;;
18647;SDS011;9453;50.294;18.644;2022-10-31T10:31:15;14.27;;;6.75;;
18647;SDS011;9453;50.294;18.644;2022-10-31T10:33:47;12.02;;;5.85;;
18647;SDS011;9453;50.294;18.644;2022-10-31T10:36:22;14.07;;;7.13;;
18647;SDS011;9453;50.294;18.644;2022-10-31T10:38:57;12.75;;;6.32;;
18647;SDS011;9453;50.294;18.644;2022-10-31T10:41:29;12.05;;;5.50;;
18647;SDS011;9453;50.294;18.644;2022-10-31T10:43:58;12.05;;;6.40;;
18647;SDS011;9453;50.294;18.644;2022-10-31T10:46:26;17.92;;;7.07;;
18647;SDS011;9453;50.294;18.644;2022-10-31T10:49:17;16.17;;;7.05;;
18647;SDS011;9453;50.294;18.644;2022-10-31T10:51:50;13.63;;;6.93;;
18647;SDS011;9453;50.294;18.644;2022-10-31T10:54:29;11.70;;;5.70;;
18647;SDS011;9453;50.294;18.644;2022-10-31T10:57:15;9.10;;;4.60;;
18647;SDS011;9453;50.294;18.644;2022-10-31T10:59:55;12.07;;;5.47;;
18647;SDS011;9453;50.294;18.644;2022-10-31T11:02:24;10.30;;;4.65;;
18647;SDS011;9453;50.294;18.644;2022-10-31T11:04:52;15.68;;;6.57;;
18647;SDS011;9453;50.294;18.644;2022-10-31T11:07:21;12.90;;;6.38;;
18647;SDS011;9453;50.294;18.644;2022-10-31T11:09:48;10.50;;;5.28;;
18647;SDS011;9453;50.294;18.644;2022-10-31T11:12:19;10.95;;;5.70;;
18647;SDS011;9453;50.294;18.644;2022-10-31T11:14:50;15.00;;;5.82;;
18647;SDS011;9453;50.294;18.644;2022-10-31T11:17:20;11.60;;;5.35;;
18647;SDS011;9453;50.294;18.644;2022-10-31T11:20:02;18.10;;;6.57;;
18647;SDS011;9453;50.294;18.644;2022-10-31T11:22:31;17.65;;;6.07;;
18647;SDS011;9453;50.294;18.644;2022-10-31T11:24:58;17.05;;;5.38;;
18647;SDS011;9453;50.294;18.644;2022-10-31T11:27:26;13.23;;;5.50;;
18647;SDS011;9453;50.294;18.644;2022-10-31T11:30:03;11.63;;;5.18;;
18647;SDS011;9453;50.294;18.644;2022-10-31T11:32:31;13.77;;;5.75;;
18647;SDS011;9453;50.294;18.644;2022-10-31T11:34:59;9.27;;;4.63;;
18647;SDS011;9453;50.294;18.644;2022-10-31T11:37:29;10.00;;;4.97;;
18647;SDS011;9453;50.294;18.644;2022-10-31T11:40:02;15.20;;;5.63;;
18647;SDS011;9453;50.294;18.644;2022-10-31T11:42:36;16.65;;;5.57;;
18647;SDS011;9453;50.294;18.644;2022-10-31T11:45:06;9.90;;;4.32;;
18647;SDS011;9453;50.294;18.644;2022-10-31T11:47:41;14.38;;;5.28;;
18647;SDS011;9453;50.294;18.644;2022-10-31T11:50:11;9.73;;;4.35;;
18647;SDS011;9453;50.294;18.644;2022-10-31T11:52:45;10.52;;;4.15;;
18647;SDS011;9453;50.294;18.644;2022-10-31T11:55:17;11.23;;;4.57;;
18647;SDS011;9453;50.294;18.644;2022-10-31T11:57:58;11.95;;;5.05;;
18647;SDS011;9453;50.294;18.644;2022-10-31T12:00:26;9.48;;;5.03;;
18647;SDS011;9453;50.294;18.644;2022-10-31T12:03:04;10.60;;;4.07;;
18647;SDS011;9453;50.294;18.644;2022-10-31T12:05:37;8.50;;;4.32;;
18647;SDS011;9453;50.294;18.644;2022-10-31T12:08:06;9.10;;;4.32;;
18647;SDS011;9453;50.294;18.644;2022-10-31T12:10:38;8.18;;;3.80;;
18647;SDS011;9453;50.294;18.644;2022-10-31T12:13:27;6.35;;;3.53;;
18647;SDS011;9453;50.294;18.644;2022-10-31T12:16:00;8.48;;;3.92;;
18647;SDS011;9453;50.294;18.644;2022-10-31T12:18:42;14.13;;;4.70;;
18647;SDS011;9453;50.294;18.644;2022-10-31T12:21:25;8.70;;;4.13;;
18647;SDS011;9453;50.294;18.644;2022-10-31T12:24:14;7.43;;;3.35;;
18647;SDS011;9453;50.294;18.644;2022-10-31T12:26:50;6.40;;;2.80;;
18647;SDS011;9453;50.294;18.644;2022-10-31T12:29:33;8.10;;;3.90;;
18647;SDS011;9453;50.294;18.644;2022-10-31T12:32:15;9.15;;;3.65;;
18647;SDS011;9453;50.294;18.644;2022-10-31T12:35:10;6.80;;;3.25;;
18647;SDS011;9453;50.294;18.644;2022-10-31T12:37:54;10.45;;;3.33;;
18647;SDS011;9453;50.294;18.644;2022-10-31T12:40:43;7.47;;;3.30;;
18647;SDS011;9453;50.294;18.644;2022-10-31T12:43:25;9.10;;;3.60;;
18647;SDS011;9453;50.294;18.644;2022-10-31T12:46:03;10.20;;;3.20;;
18647;SDS011;9453;50.294;18.644;2022-10-31T12:48:45;6.57;;;3.00;;
18647;SDS011;9453;50.294;18.644;2022-10-31T12:51:24;10.70;;;3.42;;
18647;SDS011;9453;50.294;18.644;2022-10-31T12:54:02;7.15;;;2.85;;
18647;SDS011;9453;50.294;18.644;2022-10-31T12:56:42;9.38;;;3.70;;
18647;SDS011;9453;50.294;18.644;2022-10-31T12:59:18;11.50;;;3.70;;
18647;SDS011;9453;50.294;18.644;2022-10-31T13:01:51;8.55;;;3.75;;
18647;SDS011;9453;50.294;18.644;2022-10-31T13:04:24;10.43;;;3.33;;
18647;SDS011;9453;50.294;18.644;2022-10-31T13:07:02;8.05;;;3.85;;
18647;SDS011;9453;50.294;18.644;2022-10-31T13:09:33;15.73;;;4.40;;
18647;SDS011;9453;50.294;18.644;2022-10-31T13:12:07;6.35;;;3.30;;
18647;SDS011;9453;50.294;18.644;2022-10-31T13:14:36;10.18;;;3.92;;
18647;SDS011;9453;50.294;18.644;2022-10-31T13:17:08;10.10;;;4.00;;
18647;SDS011;9453;50.294;18.644;2022-10-31T13:19:52;9.95;;;4.00;;
18647;SDS011;9453;50.294;18.644;2022-10-31T13:22:29;10.00;;;3.63;;
18647;SDS011;9453;50.294;18.644;2022-10-31T13:25:02;8.02;;;3.20;;
18647;SDS011;9453;50.294;18.644;2022-10-31T13:27:40;12.05;;;3.97;;
18647;SDS011;9453;50.294;18.644;2022-10-31T13:30:12;10.30;;;4.13;;
18647;SDS011;9453;50.294;18.644;2022-10-31T13:32:44;6.63;;;3.70;;
18647;SDS011;9453;50.294;18.644;2022-10-31T13:35:21;6.50;;;2.95;;
18647;SDS011;9453;50.294;18.644;2022-10-31T13:38:00;6.70;;;3.17;;
18647;SDS011;9453;50.294;18.644;2022-10-31T13:40:37;7.70;;;3.47;;
18647;SDS011;9453;50.294;18.644;2022-10-31T13:43:11;6.82;;;3.40;;
18647;SDS011;9453;50.294;18.644;2022-10-31T13:45:49;12.48;;;4.30;;
18647;SDS011;9453;50.294;18.644;2022-10-31T13:48:19;7.22;;;3.17;;
18647;SDS011;9453;50.294;18.644;2022-10-31T13:51:04;7.75;;;3.35;;
18647;SDS011;9453;50.294;18.644;2022-10-31T13:53:55;11.35;;;3.83;;
18647;SDS011;9453;50.294;18.644;2022-10-31T13:56:25;7.35;;;3.33;;
18647;SDS011;9453;50.294;18.644;2022-10-31T13:58:57;9.30;;;4.20;;
18647;SDS011;9453;50.294;18.644;2022-10-31T14:01:31;6.90;;;3.25;;
18647;SDS011;9453;50.294;18.644;2022-10-31T14:04:02;8.15;;;2.97;;
18647;SDS011;9453;50.294;18.644;2022-10-31T14:06:34;7.10;;;3.50;;
18647;SDS011;9453;50.294;18.644;2022-10-31T14:09:04;7.45;;;3.30;;
18647;SDS011;9453;50.294;18.644;2022-10-31T14:11:32;9.52;;;4.90;;
18647;SDS011;9453;50.294;18.644;2022-10-31T14:13:59;16.15;;;5.05;;
18647;SDS011;9453;50.294;18.644;2022-10-31T14:16:27;19.20;;;6.07;;
18647;SDS011;9453;50.294;18.644;2022-10-31T14:18:57;14.07;;;4.78;;
18647;SDS011;9453;50.294;18.644;2022-10-31T14:21:29;15.60;;;5.20;;
18647;SDS011;9453;50.294;18.644;2022-10-31T14:23:57;10.65;;;3.95;;
18647;SDS011;9453;50.294;18.644;2022-10-31T14:26:31;17.88;;;5.45;;
18647;SDS011;9453;50.294;18.644;2022-10-31T14:29:00;21.45;;;5.95;;
18647;SDS011;9453;50.294;18.644;2022-10-31T14:31:32;13.60;;;5.82;;
18647;SDS011;9453;50.294;18.644;2022-10-31T14:34:04;17.05;;;4.95;;
18647;SDS011;9453;50.294;18.644;2022-10-31T14:36:48;10.07;;;4.03;;
18647;SDS011;9453;50.294;18.644;2022-10-31T14:39:24;9.23;;;4.65;;
18647;SDS011;9453;50.294;18.644;2022-10-31T14:41:59;11.13;;;4.20;;
18647;SDS011;9453;50.294;18.644;2022-10-31T14:44:46;14.90;;;4.63;;
18647;SDS011;9453;50.294;18.644;2022-10-31T14:47:31;13.40;;;3.83;;
18647;SDS011;9453;50.294;18.644;2022-10-31T14:50:10;11.65;;;3.83;;
18647;SDS011;9453;50.294;18.644;2022-10-31T14:53:00;6.65;;;3.50;;
18647;SDS011;9453;50.294;18.644;2022-10-31T14:55:30;6.30;;;2.85;;
18647;SDS011;9453;50.294;18.644;2022-10-31T14:57:58;5.50;;;3.03;;
18647;SDS011;9453;50.294;18.644;2022-10-31T15:00:27;4.70;;;2.85;;
18647;SDS011;9453;50.294;18.644;2022-10-31T15:03:05;5.13;;;2.78;;
18647;SDS011;9453;50.294;18.644;2022-10-31T15:05:41;5.22;;;2.65;;
18647;SDS011;9453;50.294;18.644;2022-10-31T15:08:25;4.70;;;2.22;;
18647;SDS011;9453;50.294;18.644;2022-10-31T15:11:10;5.55;;;2.92;;
18647;SDS011;9453;50.294;18.644;2022-10-31T15:13:42;5.32;;;2.72;;
18647;SDS011;9453;50.294;18.644;2022-10-31T15:16:09;8.18;;;2.92;;
18647;SDS011;9453;50.294;18.644;2022-10-31T15:18:51;8.07;;;3.35;;
18647;SDS011;9453;50.294;18.644;2022-10-31T15:21:20;8.30;;;3.67;;
18647;SDS011;9453;50.294;18.644;2022-10-31T15:23:50;9.93;;;4.43;;
18647;SDS011;9453;50.294;18.644;2022-10-31T15:26:20;7.28;;;3.55;;
18647;SDS011;9453;50.294;18.644;2022-10-31T15:28:57;6.60;;;3.25;;
18647;SDS011;9453;50.294;18.644;2022-10-31T15:31:26;7.80;;;3.78;;
18647;SDS011;9453;50.294;18.644;2022-10-31T15:33:53;4.60;;;2.92;;
18647;SDS011;9453;50.294;18.644;2022-10-31T15:36:23;6.40;;;3.45;;
18647;SDS011;9453;50.294;18.644;2022-10-31T15:38:52;9.40;;;4.30;;
18647;SDS011;9453;50.294;18.644;2022-10-31T15:41:23;7.38;;;3.72;;
18647;SDS011;9453;50.294;18.644;2022-10-31T15:43:59;10.27;;;5.10;;
18647;SDS011;9453;50.294;18.644;2022-10-31T15:46:30;11.55;;;4.55;;
18647;SDS011;9453;50.294;18.644;2022-10-31T15:48:58;9.38;;;4.32;;
18647;SDS011;9453;50.294;18.644;2022-10-31T15:51:27;7.57;;;4.40;;
18647;SDS011;9453;50.294;18.644;2022-10-31T15:53:58;9.50;;;5.40;;
18647;SDS011;9453;50.294;18.644;2022-10-31T15:56:27;7.70;;;4.30;;
18647;SDS011;9453;50.294;18.644;2022-10-31T15:58:56;9.93;;;5.03;;
18647;SDS011;9453;50.294;18.644;2022-10-31T16:01:26;12.27;;;5.93;;
18647;SDS011;9453;50.294;18.644;2022-10-31T16:04:03;13.95;;;6.88;;
18647;SDS011;9453;50.294;18.644;2022-10-31T16:06:55;23.95;;;8.68;;
18647;SDS011;9453;50.294;18.644;2022-10-31T16:09:27;18.27;;;7.45;;
18647;SDS011;9453;50.294;18.644;2022-10-31T16:11:54;16.95;;;7.45;;
18647;SDS011;9453;50.294;18.644;2022-10-31T16:14:23;16.80;;;7.50;;
18647;SDS011;9453;50.294;18.644;2022-10-31T16:16:53;27.52;;;11.57;;
18647;SDS011;9453;50.294;18.644;2022-10-31T16:19:23;33.05;;;11.90;;
18647;SDS011;9453;50.294;18.644;2022-10-31T16:21:53;36.33;;;13.73;;
18647;SDS011;9453;50.294;18.644;2022-10-31T16:24:22;41.90;;;15.77;;
18647;SDS011;9453;50.294;18.644;2022-10-31T16:26:53;51.83;;;18.00;;
18647;SDS011;9453;50.294;18.644;2022-10-31T16:29:28;74.32;;;24.45;;
18647;SDS011;9453;50.294;18.644;2022-10-31T16:31:59;75.05;;;26.10;;
18647;SDS011;9453;50.294;18.644;2022-10-31T16:34:25;61.78;;;21.88;;
18647;SDS011;9453;50.294;18.644;2022-10-31T16:36:52;49.30;;;19.77;;
18647;SDS011;9453;50.294;18.644;2022-10-31T16:39:19;50.10;;;17.77;;
18647;SDS011;9453;50.294;18.644;2022-10-31T16:41:46;41.10;;;16.50;;
18647;SDS011;9453;50.294;18.644;2022-10-31T16:44:18;42.70;;;16.98;;
18647;SDS011;9453;50.294;18.644;2022-10-31T16:46:48;36.38;;;15.00;;
18647;SDS011;9453;50.294;18.644;2022-10-31T16:49:38;33.92;;;13.32;;
18647;SDS011;9453;50.294;18.644;2022-10-31T16:52:05;31.10;;;12.60;;
18647;SDS011;9453;50.294;18.644;2022-10-31T16:54:32;30.55;;;12.25;;
18647;SDS011;9453;50.294;18.644;2022-10-31T16:56:59;34.00;;;14.18;;
18647;SDS011;9453;50.294;18.644;2022-10-31T16:59:28;34.80;;;14.82;;
18647;SDS011;9453;50.294;18.644;2022-10-31T17:01:56;43.70;;;18.90;;
18647;SDS011;9453;50.294;18.644;2022-10-31T17:04:23;47.67;;;21.88;;
18647;SDS011;9453;50.294;18.644;2022-10-31T17:06:50;50.25;;;22.08;;
18647;SDS011;9453;50.294;18.644;2022-10-31T17:09:17;52.28;;;21.92;;
18647;SDS011;9453;50.294;18.644;2022-10-31T17:11:45;47.80;;;20.42;;
18647;SDS011;9453;50.294;18.644;2022-10-31T17:14:15;43.47;;;21.38;;
18647;SDS011;9453;50.294;18.644;2022-10-31T17:16:44;46.45;;;19.67;;
18647;SDS011;9453;50.294;18.644;2022-10-31T17:19:11;39.25;;;18.95;;
18647;SDS011;9453;50.294;18.644;2022-10-31T17:21:38;39.17;;;16.92;;
18647;SDS011;9453;50.294;18.644;2022-10-31T17:24:05;32.28;;;15.30;;
18647;SDS011;9453;50.294;18.644;2022-10-31T17:26:35;39.17;;;18.45;;
18647;SDS011;9453;50.294;18.644;2022-10-31T17:29:02;43.45;;;21.42;;
18647;SDS011;9453;50.294;18.644;2022-10-31T17:31:29;54.40;;;27.38;;
18647;SDS011;9453;50.294;18.644;2022-10-31T17:33:59;61.17;;;27.27;;
18647;SDS011;9453;50.294;18.644;2022-10-31T17:36:27;59.45;;;27.60;;
18647;SDS011;9453;50.294;18.644;2022-10-31T17:38:54;51.33;;;25.70;;
18647;SDS011;9453;50.294;18.644;2022-10-31T17:41:21;57.47;;;28.13;;
18647;SDS011;9453;50.294;18.644;2022-10-31T17:43:53;70.18;;;30.33;;
18647;SDS011;9453;50.294;18.644;2022-10-31T17:46:20;64.57;;;32.47;;
18647;SDS011;9453;50.294;18.644;2022-10-31T17:48:48;62.78;;;30.08;;
18647;SDS011;9453;50.294;18.644;2022-10-31T17:51:16;60.97;;;31.48;;
18647;SDS011;9453;50.294;18.644;2022-10-31T17:53:43;58.65;;;28.95;;
18647;SDS011;9453;50.294;18.644;2022-10-31T17:56:11;47.03;;;24.27;;
18647;SDS011;9453;50.294;18.644;2022-10-31T17:58:38;52.90;;;23.93;;
18647;SDS011;9453;50.294;18.644;2022-10-31T18:01:06;46.35;;;21.67;;
18647;SDS011;9453;50.294;18.644;2022-10-31T18:03:34;54.28;;;24.92;;
18647;SDS011;9453;50.294;18.644;2022-10-31T18:06:01;60.50;;;27.60;;
18647;SDS011;9453;50.294;18.644;2022-10-31T18:08:32;63.97;;;26.77;;
18647;SDS011;9453;50.294;18.644;2022-10-31T18:11:04;52.90;;;25.87;;
18647;SDS011;9453;50.294;18.644;2022-10-31T18:13:33;61.77;;;26.73;;
18647;SDS011;9453;50.294;18.644;2022-10-31T18:16:00;57.87;;;26.53;;
18647;SDS011;9453;50.294;18.644;2022-10-31T18:18:27;52.53;;;26.83;;
18647;SDS011;9453;50.294;18.644;2022-10-31T18:20:55;57.57;;;26.63;;
18647;SDS011;9453;50.294;18.644;2022-10-31T18:23:23;58.73;;;26.80;;
18647;SDS011;9453;50.294;18.644;2022-10-31T18:25:51;54.60;;;25.80;;
18647;SDS011;9453;50.294;18.644;2022-10-31T18:28:19;53.13;;;28.07;;
18647;SDS011;9453;50.294;18.644;2022-10-31T18:30:46;55.37;;;26.60;;
18647;SDS011;9453;50.294;18.644;2022-10-31T18:33:13;54.53;;;24.50;;
18647;SDS011;9453;50.294;18.644;2022-10-31T18:35:40;52.80;;;24.97;;
18647;SDS011;9453;50.294;18.644;2022-10-31T18:38:07;59.17;;;28.63;;
18647;SDS011;9453;50.294;18.644;2022-10-31T18:40:34;58.40;;;28.23;;
18647;SDS011;9453;50.294;18.644;2022-10-31T18:43:02;57.97;;;28.10;;
18647;SDS011;9453;50.294;18.644;2022-10-31T18:45:30;57.80;;;27.90;;
18647;SDS011;9453;50.294;18.644;2022-10-31T18:47:57;56.70;;;28.60;;
18647;SDS011;9453;50.294;18.644;2022-10-31T18:50:24;61.97;;;30.27;;
18647;SDS011;9453;50.294;18.644;2022-10-31T18:52:51;58.10;;;28.43;;
18647;SDS011;9453;50.294;18.644;2022-10-31T18:55:18;56.83;;;27.73;;
18647;SDS011;9453;50.294;18.644;2022-10-31T18:57:45;69.50;;;35.20;;
18647;SDS011;9453;50.294;18.644;2022-10-31T19:00:14;83.43;;;36.03;;
18647;SDS011;9453;50.294;18.644;2022-10-31T19:02:42;81.17;;;35.60;;
18647;SDS011;9453;50.294;18.644;2022-10-31T19:05:09;76.03;;;36.10;;
18647;SDS011;9453;50.294;18.644;2022-10-31T19:07:37;75.50;;;35.27;;
18647;SDS011;9453;50.294;18.644;2022-10-31T19:10:04;79.03;;;33.73;;
18647;SDS011;9453;50.294;18.644;2022-10-31T19:12:31;71.13;;;31.57;;
18647;SDS011;9453;50.294;18.644;2022-10-31T19:14:58;71.00;;;31.50;;
18647;SDS011;9453;50.294;18.644;2022-10-31T19:17:26;69.33;;;33.10;;
18647;SDS011;9453;50.294;18.644;2022-10-31T19:19:54;77.23;;;33.50;;
18647;SDS011;9453;50.294;18.644;2022-10-31T19:22:20;80.90;;;34.03;;
18647;SDS011;9453;50.294;18.644;2022-10-31T19:24:47;79.53;;;34.93;;
18647;SDS011;9453;50.294;18.644;2022-10-31T19:27:14;82.37;;;35.47;;
18647;SDS011;9453;50.294;18.644;2022-10-31T19:29:41;80.80;;;35.20;;
18647;SDS011;9453;50.294;18.644;2022-10-31T19:32:08;73.07;;;31.50;;
18647;SDS011;9453;50.294;18.644;2022-10-31T19:34:36;82.10;;;33.07;;
18647;SDS011;9453;50.294;18.644;2022-10-31T19:37:03;76.90;;;32.67;;
18647;SDS011;9453;50.294;18.644;2022-10-31T19:39:30;75.80;;;33.90;;
18647;SDS011;9453;50.294;18.644;2022-10-31T19:41:57;72.77;;;30.87;;
18647;SDS011;9453;50.294;18.644;2022-10-31T19:44:24;70.77;;;30.80;;
18647;SDS011;9453;50.294;18.644;2022-10-31T19:46:54;79.77;;;33.23;;
18647;SDS011;9453;50.294;18.644;2022-10-31T19:49:20;72.03;;;33.30;;
18647;SDS011;9453;50.294;18.644;2022-10-31T19:51:49;83.13;;;35.77;;
18647;SDS011;9453;50.294;18.644;2022-10-31T19:54:16;90.63;;;38.20;;